sensor_id;sensor_type;location;lat;lon;timestamp;temperature;humidity
32809;DHT22;19159;48.178;16.386;2023-07-13T00:02:22;26.20;89.10
32809;DHT22;19159;48.178;16.386;2023-07-13T00:04:47;26.20;89.10
32809;DHT22;19159;48.178;16.386;2023-07-13T00:07:13;26.20;89.00
32809;DHT22;19159;48.178;16.386;2023-07-13T00:09:40;26.20;89.20
32809;DHT22;19159;48.178;16.386;2023-07-13T00:12:28;26.20;89.30
32809;DHT22;19159;48.178;16.386;2023-07-13T00:14:56;26.20;89.90
32809;DHT22;19159;48.178;16.386;2023-07-13T00:17:23;26.20;89.90
32809;DHT22;19159;48.178;16.386;2023-07-13T00:19:49;26.20;90.10
32809;DHT22;19159;48.178;16.386;2023-07-13T00:22:14;26.10;90.20
32809;DHT22;19159;48.178;16.386;2023-07-13T00:24:40;26.10;90.40
32809;DHT22;19159;48.178;16.386;2023-07-13T00:27:08;26.00;90.60
32809;DHT22;19159;48.178;16.386;2023-07-13T00:29:34;26.00;90.80
32809;DHT22;19159;48.178;16.386;2023-07-13T00:32:00;26.00;90.90
32809;DHT22;19159;48.178;16.386;2023-07-13T00:34:25;26.00;90.80
32809;DHT22;19159;48.178;16.386;2023-07-13T00:36:51;26.10;90.80
32809;DHT22;19159;48.178;16.386;2023-07-13T00:39:17;26.10;90.70
32809;DHT22;19159;48.178;16.386;2023-07-13T00:41:42;26.10;90.60
32809;DHT22;19159;48.178;16.386;2023-07-13T00:44:14;26.10;90.50
32809;DHT22;19159;48.178;16.386;2023-07-13T00:46:40;26.20;90.50
32809;DHT22;19159;48.178;16.386;2023-07-13T00:49:08;26.20;90.40
32809;DHT22;19159;48.178;16.386;2023-07-13T00:51:44;26.20;90.40
32809;DHT22;19159;48.178;16.386;2023-07-13T00:54:15;26.20;90.00
32809;DHT22;19159;48.178;16.386;2023-07-13T00:56:45;26.20;89.30
32809;DHT22;19159;48.178;16.386;2023-07-13T00:59:12;26.10;87.50
32809;DHT22;19159;48.178;16.386;2023-07-13T01:01:38;26.10;86.90
32809;DHT22;19159;48.178;16.386;2023-07-13T01:04:04;26.00;86.60
32809;DHT22;19159;48.178;16.386;2023-07-13T01:06:36;26.10;86.60
32809;DHT22;19159;48.178;16.386;2023-07-13T01:09:03;26.10;86.40
32809;DHT22;19159;48.178;16.386;2023-07-13T01:11:29;26.10;86.00
32809;DHT22;19159;48.178;16.386;2023-07-13T01:13:55;26.10;86.10
32809;DHT22;19159;48.178;16.386;2023-07-13T01:16:33;26.10;86.10
32809;DHT22;19159;48.178;16.386;2023-07-13T01:19:00;26.10;85.90
32809;DHT22;19159;48.178;16.386;2023-07-13T01:21:28;26.00;85.60
32809;DHT22;19159;48.178;16.386;2023-07-13T01:23:55;26.00;85.60
32809;DHT22;19159;48.178;16.386;2023-07-13T01:26:21;25.90;85.40
32809;DHT22;19159;48.178;16.386;2023-07-13T01:28:47;25.80;85.40
32809;DHT22;19159;48.178;16.386;2023-07-13T01:31:12;25.60;85.70
32809;DHT22;19159;48.178;16.386;2023-07-13T01:33:39;25.60;86.10
32809;DHT22;19159;48.178;16.386;2023-07-13T01:36:09;25.60;86.00
32809;DHT22;19159;48.178;16.386;2023-07-13T01:38:35;25.60;86.00
32809;DHT22;19159;48.178;16.386;2023-07-13T01:41:02;25.70;86.00
32809;DHT22;19159;48.178;16.386;2023-07-13T01:43:28;25.70;85.80
32809;DHT22;19159;48.178;16.386;2023-07-13T01:45:53;25.80;86.40
32809;DHT22;19159;48.178;16.386;2023-07-13T01:48:19;25.80;85.50
32809;DHT22;19159;48.178;16.386;2023-07-13T01:50:47;25.90;85.50
32809;DHT22;19159;48.178;16.386;2023-07-13T01:53:12;26.00;85.30
32809;DHT22;19159;48.178;16.386;2023-07-13T01:55:38;26.00;85.20
32809;DHT22;19159;48.178;16.386;2023-07-13T01:58:05;26.00;84.90
32809;DHT22;19159;48.178;16.386;2023-07-13T02:00:31;26.00;84.70
32809;DHT22;19159;48.178;16.386;2023-07-13T02:02:56;25.90;84.40
32809;DHT22;19159;48.178;16.386;2023-07-13T02:05:22;25.90;84.30
32809;DHT22;19159;48.178;16.386;2023-07-13T02:07:48;25.90;84.50
32809;DHT22;19159;48.178;16.386;2023-07-13T02:10:14;25.80;84.60
32809;DHT22;19159;48.178;16.386;2023-07-13T02:12:41;25.90;84.60
32809;DHT22;19159;48.178;16.386;2023-07-13T02:15:07;25.90;84.40
32809;DHT22;19159;48.178;16.386;2023-07-13T02:17:34;25.90;84.40
32809;DHT22;19159;48.178;16.386;2023-07-13T02:20:00;25.80;84.50
32809;DHT22;19159;48.178;16.386;2023-07-13T02:22:25;25.80;84.60
32809;DHT22;19159;48.178;16.386;2023-07-13T02:24:51;25.80;84.80
32809;DHT22;19159;48.178;16.386;2023-07-13T02:27:16;25.80;85.00
32809;DHT22;19159;48.178;16.386;2023-07-13T02:29:42;25.80;85.80
32809;DHT22;19159;48.178;16.386;2023-07-13T02:32:08;25.80;85.30
32809;DHT22;19159;48.178;16.386;2023-07-13T02:34:34;25.80;85.40
32809;DHT22;19159;48.178;16.386;2023-07-13T02:37:00;25.80;85.70
32809;DHT22;19159;48.178;16.386;2023-07-13T02:39:25;25.70;85.90
32809;DHT22;19159;48.178;16.386;2023-07-13T02:41:51;25.70;86.10
32809;DHT22;19159;48.178;16.386;2023-07-13T02:44:17;25.60;86.30
32809;DHT22;19159;48.178;16.386;2023-07-13T02:46:42;25.60;86.40
32809;DHT22;19159;48.178;16.386;2023-07-13T02:49:08;25.70;86.70
32809;DHT22;19159;48.178;16.386;2023-07-13T02:51:33;25.70;86.90
32809;DHT22;19159;48.178;16.386;2023-07-13T02:54:00;25.80;87.30
32809;DHT22;19159;48.178;16.386;2023-07-13T02:56:28;25.80;87.40
32809;DHT22;19159;48.178;16.386;2023-07-13T02:58:54;25.80;87.90
32809;DHT22;19159;48.178;16.386;2023-07-13T03:01:21;25.80;87.90
32809;DHT22;19159;48.178;16.386;2023-07-13T03:03:48;25.80;88.10
32809;DHT22;19159;48.178;16.386;2023-07-13T03:06:14;25.80;88.50
32809;DHT22;19159;48.178;16.386;2023-07-13T03:08:41;25.70;88.50
32809;DHT22;19159;48.178;16.386;2023-07-13T03:11:10;25.80;89.30
32809;DHT22;19159;48.178;16.386;2023-07-13T03:13:40;25.80;89.30
32809;DHT22;19159;48.178;16.386;2023-07-13T03:16:06;25.80;89.60
32809;DHT22;19159;48.178;16.386;2023-07-13T03:18:32;25.80;89.70
32809;DHT22;19159;48.178;16.386;2023-07-13T03:20:58;25.70;89.80
32809;DHT22;19159;48.178;16.386;2023-07-13T03:23:25;25.60;89.90
32809;DHT22;19159;48.178;16.386;2023-07-13T03:26:02;25.60;90.10
32809;DHT22;19159;48.178;16.386;2023-07-13T03:28:27;25.60;90.30
32809;DHT22;19159;48.178;16.386;2023-07-13T03:31:10;25.50;90.40
32809;DHT22;19159;48.178;16.386;2023-07-13T03:33:37;25.50;90.50
32809;DHT22;19159;48.178;16.386;2023-07-13T03:36:04;25.40;90.50
32809;DHT22;19159;48.178;16.386;2023-07-13T03:38:30;25.40;90.70
32809;DHT22;19159;48.178;16.386;2023-07-13T03:40:55;25.40;90.70
32809;DHT22;19159;48.178;16.386;2023-07-13T03:43:21;25.30;90.90
32809;DHT22;19159;48.178;16.386;2023-07-13T03:45:47;25.30;91.00
32809;DHT22;19159;48.178;16.386;2023-07-13T03:48:14;25.30;91.00
32809;DHT22;19159;48.178;16.386;2023-07-13T03:50:40;25.30;91.10
32809;DHT22;19159;48.178;16.386;2023-07-13T03:53:05;25.30;91.30
32809;DHT22;19159;48.178;16.386;2023-07-13T03:55:31;25.30;91.30
32809;DHT22;19159;48.178;16.386;2023-07-13T03:58:27;25.40;91.50
32809;DHT22;19159;48.178;16.386;2023-07-13T04:00:54;25.40;91.60
32809;DHT22;19159;48.178;16.386;2023-07-13T04:03:20;25.30;91.40
32809;DHT22;19159;48.178;16.386;2023-07-13T04:05:46;25.20;91.80
32809;DHT22;19159;48.178;16.386;2023-07-13T04:08:12;25.20;92.00
32809;DHT22;19159;48.178;16.386;2023-07-13T04:10:37;25.30;92.10
32809;DHT22;19159;48.178;16.386;2023-07-13T04:13:04;25.40;92.10
32809;DHT22;19159;48.178;16.386;2023-07-13T04:15:31;25.40;92.00
32809;DHT22;19159;48.178;16.386;2023-07-13T04:17:57;25.30;92.20
32809;DHT22;19159;48.178;16.386;2023-07-13T04:20:23;25.30;92.30
32809;DHT22;19159;48.178;16.386;2023-07-13T04:22:49;25.30;92.40
32809;DHT22;19159;48.178;16.386;2023-07-13T04:25:15;25.50;92.50
32809;DHT22;19159;48.178;16.386;2023-07-13T04:27:41;25.60;92.50
32809;DHT22;19159;48.178;16.386;2023-07-13T04:30:07;25.70;92.50
32809;DHT22;19159;48.178;16.386;2023-07-13T04:32:32;25.80;92.40
32809;DHT22;19159;48.178;16.386;2023-07-13T04:34:58;25.90;92.20
32809;DHT22;19159;48.178;16.386;2023-07-13T04:37:25;26.00;92.00
32809;DHT22;19159;48.178;16.386;2023-07-13T04:39:52;26.10;91.90
32809;DHT22;19159;48.178;16.386;2023-07-13T04:42:18;26.10;91.80
32809;DHT22;19159;48.178;16.386;2023-07-13T04:44:50;26.20;91.70
32809;DHT22;19159;48.178;16.386;2023-07-13T04:47:17;26.30;91.70
32809;DHT22;19159;48.178;16.386;2023-07-13T04:49:43;26.30;91.70
32809;DHT22;19159;48.178;16.386;2023-07-13T04:52:08;26.30;91.70
32809;DHT22;19159;48.178;16.386;2023-07-13T04:54:34;26.30;91.80
32809;DHT22;19159;48.178;16.386;2023-07-13T04:57:00;26.40;91.80
32809;DHT22;19159;48.178;16.386;2023-07-13T04:59:26;26.40;91.80
32809;DHT22;19159;48.178;16.386;2023-07-13T05:01:51;26.40;91.80
32809;DHT22;19159;48.178;16.386;2023-07-13T05:04:17;26.40;91.80
32809;DHT22;19159;48.178;16.386;2023-07-13T05:06:43;26.50;91.60
32809;DHT22;19159;48.178;16.386;2023-07-13T05:09:08;26.60;91.40
32809;DHT22;19159;48.178;16.386;2023-07-13T05:11:34;26.60;91.30
32809;DHT22;19159;48.178;16.386;2023-07-13T05:14:00;26.60;91.00
32809;DHT22;19159;48.178;16.386;2023-07-13T05:16:27;26.60;91.00
32809;DHT22;19159;48.178;16.386;2023-07-13T05:18:53;26.60;91.10
32809;DHT22;19159;48.178;16.386;2023-07-13T05:21:18;26.60;90.90
32809;DHT22;19159;48.178;16.386;2023-07-13T05:23:44;26.60;90.70
32809;DHT22;19159;48.178;16.386;2023-07-13T05:26:10;26.70;90.50
32809;DHT22;19159;48.178;16.386;2023-07-13T05:28:36;26.80;90.40
32809;DHT22;19159;48.178;16.386;2023-07-13T05:31:02;26.90;90.30
32809;DHT22;19159;48.178;16.386;2023-07-13T05:33:28;26.90;90.10
32809;DHT22;19159;48.178;16.386;2023-07-13T05:35:54;27.00;90.50
32809;DHT22;19159;48.178;16.386;2023-07-13T05:38:19;26.90;89.90
32809;DHT22;19159;48.178;16.386;2023-07-13T05:40:46;26.80;89.80
32809;DHT22;19159;48.178;16.386;2023-07-13T05:43:12;26.70;89.70
32809;DHT22;19159;48.178;16.386;2023-07-13T05:45:38;26.50;89.90
32809;DHT22;19159;48.178;16.386;2023-07-13T05:48:03;26.30;90.00
32809;DHT22;19159;48.178;16.386;2023-07-13T05:50:29;26.10;90.50
32809;DHT22;19159;48.178;16.386;2023-07-13T05:52:55;26.10;90.70
32809;DHT22;19159;48.178;16.386;2023-07-13T05:55:21;26.10;90.90
32809;DHT22;19159;48.178;16.386;2023-07-13T05:57:47;25.90;91.40
32809;DHT22;19159;48.178;16.386;2023-07-13T06:00:13;25.80;91.30
32809;DHT22;19159;48.178;16.386;2023-07-13T06:02:39;25.70;91.70
32809;DHT22;19159;48.178;16.386;2023-07-13T06:05:05;25.60;91.90
32809;DHT22;19159;48.178;16.386;2023-07-13T06:07:30;25.50;92.00
32809;DHT22;19159;48.178;16.386;2023-07-13T06:09:56;25.40;92.20
32809;DHT22;19159;48.178;16.386;2023-07-13T06:12:22;25.30;92.40
32809;DHT22;19159;48.178;16.386;2023-07-13T06:14:47;25.20;92.50
32809;DHT22;19159;48.178;16.386;2023-07-13T06:17:13;25.20;92.70
32809;DHT22;19159;48.178;16.386;2023-07-13T06:19:39;25.20;92.70
32809;DHT22;19159;48.178;16.386;2023-07-13T06:22:04;25.20;92.80
32809;DHT22;19159;48.178;16.386;2023-07-13T06:24:30;25.20;92.80
32809;DHT22;19159;48.178;16.386;2023-07-13T06:26:56;25.20;92.80
32809;DHT22;19159;48.178;16.386;2023-07-13T06:29:22;25.20;92.70
32809;DHT22;19159;48.178;16.386;2023-07-13T06:31:47;25.10;92.80
32809;DHT22;19159;48.178;16.386;2023-07-13T06:34:13;25.20;93.00
32809;DHT22;19159;48.178;16.386;2023-07-13T06:36:38;25.20;92.90
32809;DHT22;19159;48.178;16.386;2023-07-13T06:39:05;25.20;93.00
32809;DHT22;19159;48.178;16.386;2023-07-13T06:41:31;25.20;93.10
32809;DHT22;19159;48.178;16.386;2023-07-13T06:43:58;25.20;93.10
32809;DHT22;19159;48.178;16.386;2023-07-13T06:46:24;25.10;93.10
32809;DHT22;19159;48.178;16.386;2023-07-13T06:48:50;25.10;93.10
32809;DHT22;19159;48.178;16.386;2023-07-13T06:51:16;25.00;93.20
32809;DHT22;19159;48.178;16.386;2023-07-13T06:53:41;24.90;93.20
32809;DHT22;19159;48.178;16.386;2023-07-13T06:56:09;24.90;93.20
32809;DHT22;19159;48.178;16.386;2023-07-13T06:58:36;24.90;93.20
32809;DHT22;19159;48.178;16.386;2023-07-13T07:01:02;24.90;92.80
32809;DHT22;19159;48.178;16.386;2023-07-13T07:03:27;25.00;92.70
32809;DHT22;19159;48.178;16.386;2023-07-13T07:05:53;25.00;93.00
32809;DHT22;19159;48.178;16.386;2023-07-13T07:08:19;25.10;92.70
32809;DHT22;19159;48.178;16.386;2023-07-13T07:10:44;25.20;92.40
32809;DHT22;19159;48.178;16.386;2023-07-13T07:13:10;25.30;92.30
32809;DHT22;19159;48.178;16.386;2023-07-13T07:15:36;25.40;92.20
32809;DHT22;19159;48.178;16.386;2023-07-13T07:18:02;25.60;92.20
32809;DHT22;19159;48.178;16.386;2023-07-13T07:20:28;25.80;92.00
32809;DHT22;19159;48.178;16.386;2023-07-13T07:22:55;25.80;91.60
32809;DHT22;19159;48.178;16.386;2023-07-13T07:25:21;25.80;91.30
32809;DHT22;19159;48.178;16.386;2023-07-13T07:27:47;25.80;91.60
32809;DHT22;19159;48.178;16.386;2023-07-13T07:30:12;25.80;91.60
32809;DHT22;19159;48.178;16.386;2023-07-13T07:32:38;25.70;91.60
32809;DHT22;19159;48.178;16.386;2023-07-13T07:35:04;25.80;91.70
32809;DHT22;19159;48.178;16.386;2023-07-13T07:37:30;25.80;91.70
32809;DHT22;19159;48.178;16.386;2023-07-13T07:39:55;25.70;91.60
32809;DHT22;19159;48.178;16.386;2023-07-13T07:42:21;25.60;91.50
32809;DHT22;19159;48.178;16.386;2023-07-13T07:44:47;25.50;91.50
32809;DHT22;19159;48.178;16.386;2023-07-13T07:47:12;25.50;91.60
32809;DHT22;19159;48.178;16.386;2023-07-13T07:49:38;25.50;91.60
32809;DHT22;19159;48.178;16.386;2023-07-13T07:52:04;25.50;91.60
32809;DHT22;19159;48.178;16.386;2023-07-13T07:54:30;25.50;91.70
32809;DHT22;19159;48.178;16.386;2023-07-13T07:56:55;25.60;91.80
32809;DHT22;19159;48.178;16.386;2023-07-13T07:59:21;25.60;91.90
32809;DHT22;19159;48.178;16.386;2023-07-13T08:01:47;25.70;91.90
32809;DHT22;19159;48.178;16.386;2023-07-13T08:04:15;25.60;91.50
32809;DHT22;19159;48.178;16.386;2023-07-13T08:06:41;25.70;91.60
32809;DHT22;19159;48.178;16.386;2023-07-13T08:09:07;25.80;91.50
32809;DHT22;19159;48.178;16.386;2023-07-13T08:11:33;25.80;91.20
32809;DHT22;19159;48.178;16.386;2023-07-13T08:13:59;25.90;91.60
32809;DHT22;19159;48.178;16.386;2023-07-13T08:16:25;26.20;91.30
32809;DHT22;19159;48.178;16.386;2023-07-13T08:18:51;26.50;90.70
32809;DHT22;19159;48.178;16.386;2023-07-13T08:21:17;26.60;90.50
32809;DHT22;19159;48.178;16.386;2023-07-13T08:23:45;26.80;90.00
32809;DHT22;19159;48.178;16.386;2023-07-13T08:26:10;26.90;89.10
32809;DHT22;19159;48.178;16.386;2023-07-13T08:28:36;27.00;89.10
32809;DHT22;19159;48.178;16.386;2023-07-13T08:31:04;27.20;88.70
32809;DHT22;19159;48.178;16.386;2023-07-13T08:33:30;27.30;89.30
32809;DHT22;19159;48.178;16.386;2023-07-13T08:35:56;27.40;87.70
32809;DHT22;19159;48.178;16.386;2023-07-13T08:38:22;27.60;87.70
32809;DHT22;19159;48.178;16.386;2023-07-13T08:40:55;27.60;86.40
32809;DHT22;19159;48.178;16.386;2023-07-13T08:43:36;27.70;86.70
32809;DHT22;19159;48.178;16.386;2023-07-13T08:46:13;27.90;86.30
32809;DHT22;19159;48.178;16.386;2023-07-13T08:48:50;27.90;85.70
32809;DHT22;19159;48.178;16.386;2023-07-13T08:51:37;28.00;85.30
32809;DHT22;19159;48.178;16.386;2023-07-13T08:56:54;27.90;85.30
32809;DHT22;19159;48.178;16.386;2023-07-13T08:59:26;27.90;85.70
32809;DHT22;19159;48.178;16.386;2023-07-13T09:05:26;28.00;85.30
32809;DHT22;19159;48.178;16.386;2023-07-13T09:10:48;28.00;85.80
32809;DHT22;19159;48.178;16.386;2023-07-13T09:16:05;28.20;86.30
32809;DHT22;19159;48.178;16.386;2023-07-13T09:18:39;28.40;86.50
32809;DHT22;19159;48.178;16.386;2023-07-13T09:23:35;29.00;85.40
32809;DHT22;19159;48.178;16.386;2023-07-13T09:26:11;29.10;84.10
32809;DHT22;19159;48.178;16.386;2023-07-13T09:28:54;29.30;84.10
32809;DHT22;19159;48.178;16.386;2023-07-13T09:33:53;29.50;82.40
32809;DHT22;19159;48.178;16.386;2023-07-13T09:36:22;29.60;82.80
32809;DHT22;19159;48.178;16.386;2023-07-13T09:42:35;29.60;81.70
32809;DHT22;19159;48.178;16.386;2023-07-13T09:47:28;29.40;82.10
32809;DHT22;19159;48.178;16.386;2023-07-13T09:50:09;29.50;81.60
32809;DHT22;19159;48.178;16.386;2023-07-13T09:52:44;29.50;81.00
32809;DHT22;19159;48.178;16.386;2023-07-13T09:55:34;29.50;81.10
32809;DHT22;19159;48.178;16.386;2023-07-13T09:58:11;29.70;81.30
32809;DHT22;19159;48.178;16.386;2023-07-13T10:00:37;29.70;80.00
32809;DHT22;19159;48.178;16.386;2023-07-13T10:03:09;29.80;80.10
32809;DHT22;19159;48.178;16.386;2023-07-13T10:05:41;29.70;78.70
32809;DHT22;19159;48.178;16.386;2023-07-13T10:08:28;29.60;79.70
32809;DHT22;19159;48.178;16.386;2023-07-13T10:11:01;29.80;80.10
32809;DHT22;19159;48.178;16.386;2023-07-13T10:13:37;29.80;78.80
32809;DHT22;19159;48.178;16.386;2023-07-13T10:16:06;29.90;79.10
32809;DHT22;19159;48.178;16.386;2023-07-13T10:18:43;30.00;78.80
32809;DHT22;19159;48.178;16.386;2023-07-13T10:21:19;30.10;77.80
32809;DHT22;19159;48.178;16.386;2023-07-13T10:23:50;30.00;77.90
32809;DHT22;19159;48.178;16.386;2023-07-13T10:26:21;30.00;77.90
32809;DHT22;19159;48.178;16.386;2023-07-13T10:28:52;30.10;78.50
32809;DHT22;19159;48.178;16.386;2023-07-13T10:31:21;30.10;77.60
32809;DHT22;19159;48.178;16.386;2023-07-13T10:33:46;30.30;78.60
32809;DHT22;19159;48.178;16.386;2023-07-13T10:36:33;30.40;77.50
32809;DHT22;19159;48.178;16.386;2023-07-13T10:39:03;30.40;76.30
32809;DHT22;19159;48.178;16.386;2023-07-13T10:41:32;30.30;75.80
32809;DHT22;19159;48.178;16.386;2023-07-13T10:43:59;30.20;75.50
32809;DHT22;19159;48.178;16.386;2023-07-13T10:46:27;30.20;75.80
32809;DHT22;19159;48.178;16.386;2023-07-13T10:49:06;30.10;75.90
32809;DHT22;19159;48.178;16.386;2023-07-13T10:51:33;30.20;75.80
32809;DHT22;19159;48.178;16.386;2023-07-13T10:56:44;30.30;75.30
32809;DHT22;19159;48.178;16.386;2023-07-13T10:59:12;30.30;74.90
32809;DHT22;19159;48.178;16.386;2023-07-13T11:04:22;30.40;75.40
32809;DHT22;19159;48.178;16.386;2023-07-13T11:06:53;30.40;74.40
32809;DHT22;19159;48.178;16.386;2023-07-13T11:12:27;30.30;72.90
32809;DHT22;19159;48.178;16.386;2023-07-13T11:17:48;30.10;74.30
32809;DHT22;19159;48.178;16.386;2023-07-13T11:23:06;30.20;74.10
32809;DHT22;19159;48.178;16.386;2023-07-13T11:25:34;30.30;73.90
32809;DHT22;19159;48.178;16.386;2023-07-13T11:38:43;30.90;71.40
32809;DHT22;19159;48.178;16.386;2023-07-13T11:41:22;31.10;70.80
32809;DHT22;19159;48.178;16.386;2023-07-13T11:43:53;31.20;70.80
32809;DHT22;19159;48.178;16.386;2023-07-13T11:46:25;31.30;70.40
32809;DHT22;19159;48.178;16.386;2023-07-13T11:48:52;31.20;69.50
32809;DHT22;19159;48.178;16.386;2023-07-13T11:51:29;31.20;70.50
32809;DHT22;19159;48.178;16.386;2023-07-13T11:53:59;31.30;71.00
32809;DHT22;19159;48.178;16.386;2023-07-13T11:56:27;31.20;69.20
32809;DHT22;19159;48.178;16.386;2023-07-13T11:58:54;31.00;69.10
32809;DHT22;19159;48.178;16.386;2023-07-13T12:01:28;30.90;69.80
32809;DHT22;19159;48.178;16.386;2023-07-13T12:04:01;31.00;70.10
32809;DHT22;19159;48.178;16.386;2023-07-13T12:06:33;31.10;69.90
32809;DHT22;19159;48.178;16.386;2023-07-13T12:09:12;31.10;69.30
32809;DHT22;19159;48.178;16.386;2023-07-13T12:11:46;30.90;68.40
32809;DHT22;19159;48.178;16.386;2023-07-13T12:14:15;30.90;69.30
32809;DHT22;19159;48.178;16.386;2023-07-13T12:16:42;30.90;68.80
32809;DHT22;19159;48.178;16.386;2023-07-13T12:19:20;30.80;69.10
32809;DHT22;19159;48.178;16.386;2023-07-13T12:21:47;30.80;69.10
32809;DHT22;19159;48.178;16.386;2023-07-13T12:24:17;30.80;69.00
32809;DHT22;19159;48.178;16.386;2023-07-13T12:26:44;30.90;69.20
32809;DHT22;19159;48.178;16.386;2023-07-13T12:29:17;30.90;68.90
32809;DHT22;19159;48.178;16.386;2023-07-13T12:31:45;30.90;67.90
32809;DHT22;19159;48.178;16.386;2023-07-13T12:34:12;30.90;67.60
32809;DHT22;19159;48.178;16.386;2023-07-13T12:41:48;30.80;68.30
32809;DHT22;19159;48.178;16.386;2023-07-13T12:44:17;30.80;68.40
32809;DHT22;19159;48.178;16.386;2023-07-13T12:47:13;30.90;68.10
32809;DHT22;19159;48.178;16.386;2023-07-13T12:49:48;30.90;68.70
32809;DHT22;19159;48.178;16.386;2023-07-13T12:52:19;30.90;68.90
32809;DHT22;19159;48.178;16.386;2023-07-13T12:55:07;31.10;69.30
32809;DHT22;19159;48.178;16.386;2023-07-13T12:57:41;31.20;68.90
32809;DHT22;19159;48.178;16.386;2023-07-13T13:00:35;31.40;69.60
32809;DHT22;19159;48.178;16.386;2023-07-13T13:03:29;31.70;69.70
32809;DHT22;19159;48.178;16.386;2023-07-13T13:08:46;31.70;68.40
32809;DHT22;19159;48.178;16.386;2023-07-13T13:11:14;31.70;68.20
32809;DHT22;19159;48.178;16.386;2023-07-13T13:13:41;31.60;68.00
32809;DHT22;19159;48.178;16.386;2023-07-13T13:16:23;31.50;68.30
32809;DHT22;19159;48.178;16.386;2023-07-13T13:18:51;31.50;68.90
32809;DHT22;19159;48.178;16.386;2023-07-13T13:21:17;31.40;67.70
32809;DHT22;19159;48.178;16.386;2023-07-13T13:23:43;31.40;68.00
32809;DHT22;19159;48.178;16.386;2023-07-13T13:26:14;31.50;68.20
32809;DHT22;19159;48.178;16.386;2023-07-13T13:28:43;31.50;68.30
32809;DHT22;19159;48.178;16.386;2023-07-13T13:31:10;31.50;68.20
32809;DHT22;19159;48.178;16.386;2023-07-13T13:33:41;31.50;67.70
32809;DHT22;19159;48.178;16.386;2023-07-13T13:36:22;31.30;67.90
32809;DHT22;19159;48.178;16.386;2023-07-13T13:38:49;31.30;68.30
32809;DHT22;19159;48.178;16.386;2023-07-13T13:41:16;31.20;68.30
32809;DHT22;19159;48.178;16.386;2023-07-13T13:43:43;31.20;68.20
32809;DHT22;19159;48.178;16.386;2023-07-13T13:46:20;31.20;68.50
32809;DHT22;19159;48.178;16.386;2023-07-13T13:48:48;31.00;68.80
32809;DHT22;19159;48.178;16.386;2023-07-13T13:51:19;31.10;69.30
32809;DHT22;19159;48.178;16.386;2023-07-13T13:53:46;31.20;69.60
32809;DHT22;19159;48.178;16.386;2023-07-13T13:56:13;31.30;69.70
32809;DHT22;19159;48.178;16.386;2023-07-13T13:58:39;31.30;68.00
32809;DHT22;19159;48.178;16.386;2023-07-13T14:01:17;31.00;67.80
32809;DHT22;19159;48.178;16.386;2023-07-13T14:03:43;31.00;68.30
32809;DHT22;19159;48.178;16.386;2023-07-13T14:06:13;30.90;68.30
32809;DHT22;19159;48.178;16.386;2023-07-13T14:08:39;30.70;68.30
32809;DHT22;19159;48.178;16.386;2023-07-13T14:11:07;30.60;68.90
32809;DHT22;19159;48.178;16.386;2023-07-13T14:13:40;30.50;68.70
32809;DHT22;19159;48.178;16.386;2023-07-13T14:16:11;30.50;69.30
32809;DHT22;19159;48.178;16.386;2023-07-13T14:18:38;30.50;69.20
32809;DHT22;19159;48.178;16.386;2023-07-13T14:21:11;30.40;69.30
32809;DHT22;19159;48.178;16.386;2023-07-13T14:23:36;30.30;69.30
32809;DHT22;19159;48.178;16.386;2023-07-13T14:26:03;30.30;69.60
32809;DHT22;19159;48.178;16.386;2023-07-13T14:28:29;30.20;69.60
32809;DHT22;19159;48.178;16.386;2023-07-13T14:30:55;30.20;70.10
32809;DHT22;19159;48.178;16.386;2023-07-13T14:33:21;30.20;69.90
32809;DHT22;19159;48.178;16.386;2023-07-13T14:35:47;30.00;69.80
32809;DHT22;19159;48.178;16.386;2023-07-13T14:38:18;29.90;70.30
32809;DHT22;19159;48.178;16.386;2023-07-13T14:40:44;29.80;70.40
32809;DHT22;19159;48.178;16.386;2023-07-13T14:43:11;29.70;70.30
32809;DHT22;19159;48.178;16.386;2023-07-13T14:45:50;29.60;70.60
32809;DHT22;19159;48.178;16.386;2023-07-13T14:48:21;29.50;70.80
32809;DHT22;19159;48.178;16.386;2023-07-13T14:50:49;29.50;71.00
32809;DHT22;19159;48.178;16.386;2023-07-13T14:53:16;29.50;70.90
32809;DHT22;19159;48.178;16.386;2023-07-13T14:55:41;29.40;70.80
32809;DHT22;19159;48.178;16.386;2023-07-13T14:58:08;29.40;70.80
32809;DHT22;19159;48.178;16.386;2023-07-13T15:00:33;29.30;71.00
32809;DHT22;19159;48.178;16.386;2023-07-13T15:03:00;29.20;71.00
32809;DHT22;19159;48.178;16.386;2023-07-13T15:05:29;29.20;71.30
32809;DHT22;19159;48.178;16.386;2023-07-13T15:07:58;29.20;71.60
32809;DHT22;19159;48.178;16.386;2023-07-13T15:10:28;29.20;71.70
32809;DHT22;19159;48.178;16.386;2023-07-13T15:13:34;29.10;71.80
32809;DHT22;19159;48.178;16.386;2023-07-13T15:15:54;29.20;72.10
32809;DHT22;19159;48.178;16.386;2023-07-13T15:18:22;29.20;72.00
32809;DHT22;19159;48.178;16.386;2023-07-13T15:20:50;29.30;72.00
32809;DHT22;19159;48.178;16.386;2023-07-13T15:23:18;29.40;71.90
32809;DHT22;19159;48.178;16.386;2023-07-13T15:25:44;29.40;71.60
32809;DHT22;19159;48.178;16.386;2023-07-13T15:28:11;29.40;71.40
32809;DHT22;19159;48.178;16.386;2023-07-13T15:30:45;29.30;71.30
32809;DHT22;19159;48.178;16.386;2023-07-13T15:33:26;29.30;72.00
32809;DHT22;19159;48.178;16.386;2023-07-13T15:35:53;29.30;71.90
32809;DHT22;19159;48.178;16.386;2023-07-13T15:38:24;29.30;72.10
32809;DHT22;19159;48.178;16.386;2023-07-13T15:40:52;29.20;72.00
32809;DHT22;19159;48.178;16.386;2023-07-13T15:43:18;29.10;72.10
32809;DHT22;19159;48.178;16.386;2023-07-13T15:45:45;29.10;72.50
32809;DHT22;19159;48.178;16.386;2023-07-13T15:48:16;29.10;72.80
32809;DHT22;19159;48.178;16.386;2023-07-13T15:50:52;29.10;72.90
32809;DHT22;19159;48.178;16.386;2023-07-13T15:53:25;29.00;73.00
32809;DHT22;19159;48.178;16.386;2023-07-13T15:55:53;29.00;73.10
32809;DHT22;19159;48.178;16.386;2023-07-13T15:58:19;29.00;73.30
32809;DHT22;19159;48.178;16.386;2023-07-13T16:00:45;28.90;73.20
32809;DHT22;19159;48.178;16.386;2023-07-13T16:03:11;28.90;73.10
32809;DHT22;19159;48.178;16.386;2023-07-13T16:05:38;28.80;73.20
32809;DHT22;19159;48.178;16.386;2023-07-13T16:08:05;28.80;73.30
32809;DHT22;19159;48.178;16.386;2023-07-13T16:10:34;28.80;73.60
32809;DHT22;19159;48.178;16.386;2023-07-13T16:13:01;28.80;73.60
32809;DHT22;19159;48.178;16.386;2023-07-13T16:15:27;28.80;73.70
32809;DHT22;19159;48.178;16.386;2023-07-13T16:17:53;28.70;74.00
32809;DHT22;19159;48.178;16.386;2023-07-13T16:20:20;28.70;74.00